sensor_id;sensor_type;location;lat;lon;timestamp;P1;durP1;ratioP1;P2;durP2;ratioP2
39426;SDS011;25938;48.470;1.486;2022-12-07T00:00:42;4.82;;;3.65;;
39426;SDS011;25938;48.470;1.486;2022-12-07T00:03:08;5.70;;;4.00;;
39426;SDS011;25938;48.470;1.486;2022-12-07T00:05:34;4.32;;;3.47;;
39426;SDS011;25938;48.470;1.486;2022-12-07T00:08:00;4.13;;;3.72;;
39426;SDS011;25938;48.470;1.486;2022-12-07T00:10:26;4.82;;;3.38;;
39426;SDS011;25938;48.470;1.486;2022-12-07T00:12:52;4.90;;;3.50;;
39426;SDS011;25938;48.470;1.486;2022-12-07T00:15:18;5.07;;;3.63;;
39426;SDS011;25938;48.470;1.486;2022-12-07T00:17:44;5.07;;;3.38;;
39426;SDS011;25938;48.470;1.486;2022-12-07T00:20:10;4.47;;;3.47;;
39426;SDS011;25938;48.470;1.486;2022-12-07T00:22:36;4.18;;;2.63;;
39426;SDS011;25938;48.470;1.486;2022-12-07T00:25:03;4.75;;;2.58;;
39426;SDS011;25938;48.470;1.486;2022-12-07T00:27:29;5.22;;;3.13;;
39426;SDS011;25938;48.470;1.486;2022-12-07T00:29:55;4.32;;;2.88;;
39426;SDS011;25938;48.470;1.486;2022-12-07T00:32:21;3.90;;;3.05;;
39426;SDS011;25938;48.470;1.486;2022-12-07T00:34:47;4.30;;;3.25;;
39426;SDS011;25938;48.470;1.486;2022-12-07T00:37:13;4.50;;;3.47;;
39426;SDS011;25938;48.470;1.486;2022-12-07T00:39:39;3.38;;;2.65;;
39426;SDS011;25938;48.470;1.486;2022-12-07T00:42:05;4.03;;;3.30;;
39426;SDS011;25938;48.470;1.486;2022-12-07T00:44:31;5.32;;;3.38;;
39426;SDS011;25938;48.470;1.486;2022-12-07T00:46:57;4.72;;;3.33;;
39426;SDS011;25938;48.470;1.486;2022-12-07T00:49:23;3.65;;;2.78;;
39426;SDS011;25938;48.470;1.486;2022-12-07T00:51:49;4.35;;;3.15;;
39426;SDS011;25938;48.470;1.486;2022-12-07T00:54:15;3.67;;;2.95;;
39426;SDS011;25938;48.470;1.486;2022-12-07T00:56:42;4.88;;;3.22;;
39426;SDS011;25938;48.470;1.486;2022-12-07T00:59:10;4.20;;;3.03;;
39426;SDS011;25938;48.470;1.486;2022-12-07T01:01:38;4.18;;;3.17;;
39426;SDS011;25938;48.470;1.486;2022-12-07T01:04:04;4.57;;;2.90;;
39426;SDS011;25938;48.470;1.486;2022-12-07T01:06:30;3.53;;;2.75;;
39426;SDS011;25938;48.470;1.486;2022-12-07T01:08:56;4.35;;;3.00;;
39426;SDS011;25938;48.470;1.486;2022-12-07T01:11:24;4.70;;;3.22;;
39426;SDS011;25938;48.470;1.486;2022-12-07T01:13:51;4.25;;;3.00;;
39426;SDS011;25938;48.470;1.486;2022-12-07T01:16:18;3.13;;;2.75;;
39426;SDS011;25938;48.470;1.486;2022-12-07T01:18:45;3.90;;;2.83;;
39426;SDS011;25938;48.470;1.486;2022-12-07T01:21:16;5.50;;;3.38;;
39426;SDS011;25938;48.470;1.486;2022-12-07T01:23:42;4.22;;;3.15;;
39426;SDS011;25938;48.470;1.486;2022-12-07T01:26:13;4.13;;;2.55;;
39426;SDS011;25938;48.470;1.486;2022-12-07T01:28:39;5.72;;;3.63;;
39426;SDS011;25938;48.470;1.486;2022-12-07T01:31:10;3.83;;;2.95;;
39426;SDS011;25938;48.470;1.486;2022-12-07T01:33:37;4.18;;;2.70;;
39426;SDS011;25938;48.470;1.486;2022-12-07T01:36:04;4.57;;;2.97;;
39426;SDS011;25938;48.470;1.486;2022-12-07T01:38:30;4.13;;;2.95;;
39426;SDS011;25938;48.470;1.486;2022-12-07T01:40:57;4.10;;;2.60;;
39426;SDS011;25938;48.470;1.486;2022-12-07T01:43:23;3.97;;;3.08;;
39426;SDS011;25938;48.470;1.486;2022-12-07T01:45:49;3.45;;;2.55;;
39426;SDS011;25938;48.470;1.486;2022-12-07T01:48:16;3.22;;;2.55;;
39426;SDS011;25938;48.470;1.486;2022-12-07T01:50:44;2.78;;;2.53;;
39426;SDS011;25938;48.470;1.486;2022-12-07T01:53:10;4.78;;;3.20;;
39426;SDS011;25938;48.470;1.486;2022-12-07T01:55:38;4.57;;;3.10;;
39426;SDS011;25938;48.470;1.486;2022-12-07T01:58:04;2.95;;;2.15;;
39426;SDS011;25938;48.470;1.486;2022-12-07T02:00:31;3.95;;;2.75;;
39426;SDS011;25938;48.470;1.486;2022-12-07T02:02:59;3.60;;;2.60;;
39426;SDS011;25938;48.470;1.486;2022-12-07T02:05:27;4.95;;;2.60;;
39426;SDS011;25938;48.470;1.486;2022-12-07T02:07:55;3.03;;;2.65;;
39426;SDS011;25938;48.470;1.486;2022-12-07T02:10:28;4.70;;;2.85;;
39426;SDS011;25938;48.470;1.486;2022-12-07T02:15:21;4.47;;;3.08;;
39426;SDS011;25938;48.470;1.486;2022-12-07T02:23:16;3.83;;;2.60;;
39426;SDS011;25938;48.470;1.486;2022-12-07T02:26:49;2.65;;;2.42;;
39426;SDS011;25938;48.470;1.486;2022-12-07T02:31:14;3.38;;;2.60;;
39426;SDS011;25938;48.470;1.486;2022-12-07T02:33:45;4.38;;;2.42;;
39426;SDS011;25938;48.470;1.486;2022-12-07T02:39:01;3.35;;;2.30;;
39426;SDS011;25938;48.470;1.486;2022-12-07T02:41:29;2.97;;;2.42;;
39426;SDS011;25938;48.470;1.486;2022-12-07T02:43:59;3.25;;;2.28;;
39426;SDS011;25938;48.470;1.486;2022-12-07T02:46:28;3.72;;;2.80;;
39426;SDS011;25938;48.470;1.486;2022-12-07T02:48:55;3.13;;;2.17;;
39426;SDS011;25938;48.470;1.486;2022-12-07T02:51:24;2.33;;;1.95;;
39426;SDS011;25938;48.470;1.486;2022-12-07T02:53:50;2.47;;;2.10;;
39426;SDS011;25938;48.470;1.486;2022-12-07T02:56:20;2.92;;;2.58;;
39426;SDS011;25938;48.470;1.486;2022-12-07T03:04:00;3.67;;;2.33;;
39426;SDS011;25938;48.470;1.486;2022-12-07T03:06:31;2.72;;;2.13;;
39426;SDS011;25938;48.470;1.486;2022-12-07T03:12:24;3.33;;;2.40;;
39426;SDS011;25938;48.470;1.486;2022-12-07T03:14:50;2.53;;;2.22;;
39426;SDS011;25938;48.470;1.486;2022-12-07T03:17:21;2.33;;;1.85;;
39426;SDS011;25938;48.470;1.486;2022-12-07T03:19:48;2.45;;;1.73;;
39426;SDS011;25938;48.470;1.486;2022-12-07T03:22:15;2.75;;;2.22;;
39426;SDS011;25938;48.470;1.486;2022-12-07T03:24:42;2.08;;;1.85;;
39426;SDS011;25938;48.470;1.486;2022-12-07T03:29:37;2.90;;;2.17;;
39426;SDS011;25938;48.470;1.486;2022-12-07T03:32:13;3.03;;;2.13;;
39426;SDS011;25938;48.470;1.486;2022-12-07T03:34:42;2.40;;;1.75;;
39426;SDS011;25938;48.470;1.486;2022-12-07T03:37:12;4.25;;;2.53;;
39426;SDS011;25938;48.470;1.486;2022-12-07T03:39:49;3.90;;;2.28;;
39426;SDS011;25938;48.470;1.486;2022-12-07T03:42:21;2.08;;;1.85;;
39426;SDS011;25938;48.470;1.486;2022-12-07T03:44:47;2.80;;;1.85;;
39426;SDS011;25938;48.470;1.486;2022-12-07T03:49:43;2.63;;;1.77;;
39426;SDS011;25938;48.470;1.486;2022-12-07T03:57:25;2.80;;;2.13;;
39426;SDS011;25938;48.470;1.486;2022-12-07T03:59:53;2.67;;;2.28;;
39426;SDS011;25938;48.470;1.486;2022-12-07T04:02:20;2.40;;;1.90;;
39426;SDS011;25938;48.470;1.486;2022-12-07T04:04:46;3.60;;;1.77;;
39426;SDS011;25938;48.470;1.486;2022-12-07T04:07:12;2.95;;;2.42;;
39426;SDS011;25938;48.470;1.486;2022-12-07T04:09:38;3.38;;;1.92;;
39426;SDS011;25938;48.470;1.486;2022-12-07T04:12:04;3.17;;;2.10;;
39426;SDS011;25938;48.470;1.486;2022-12-07T04:14:30;1.98;;;1.65;;
39426;SDS011;25938;48.470;1.486;2022-12-07T04:16:57;2.15;;;1.70;;
39426;SDS011;25938;48.470;1.486;2022-12-07T04:19:27;3.03;;;2.28;;
39426;SDS011;25938;48.470;1.486;2022-12-07T04:21:54;2.50;;;2.30;;
39426;SDS011;25938;48.470;1.486;2022-12-07T04:24:20;2.00;;;1.80;;
39426;SDS011;25938;48.470;1.486;2022-12-07T04:26:47;2.78;;;2.35;;
39426;SDS011;25938;48.470;1.486;2022-12-07T04:29:14;2.80;;;2.55;;
39426;SDS011;25938;48.470;1.486;2022-12-07T04:31:40;2.10;;;1.73;;
39426;SDS011;25938;48.470;1.486;2022-12-07T04:34:06;2.25;;;2.05;;
39426;SDS011;25938;48.470;1.486;2022-12-07T04:36:33;3.05;;;1.85;;
39426;SDS011;25938;48.470;1.486;2022-12-07T04:38:59;3.30;;;1.95;;
39426;SDS011;25938;48.470;1.486;2022-12-07T04:41:25;1.95;;;1.65;;
39426;SDS011;25938;48.470;1.486;2022-12-07T04:43:59;2.47;;;1.85;;
39426;SDS011;25938;48.470;1.486;2022-12-07T04:46:25;3.85;;;2.28;;
39426;SDS011;25938;48.470;1.486;2022-12-07T04:48:51;2.92;;;2.30;;
39426;SDS011;25938;48.470;1.486;2022-12-07T04:51:22;4.05;;;2.13;;
39426;SDS011;25938;48.470;1.486;2022-12-07T04:53:48;2.83;;;2.13;;
39426;SDS011;25938;48.470;1.486;2022-12-07T04:56:15;1.77;;;1.67;;
39426;SDS011;25938;48.470;1.486;2022-12-07T04:58:42;2.55;;;2.20;;
39426;SDS011;25938;48.470;1.486;2022-12-07T05:01:08;3.17;;;2.22;;
39426;SDS011;25938;48.470;1.486;2022-12-07T05:03:35;2.58;;;2.30;;
39426;SDS011;25938;48.470;1.486;2022-12-07T05:06:01;2.45;;;2.08;;
39426;SDS011;25938;48.470;1.486;2022-12-07T05:08:27;2.75;;;2.08;;
39426;SDS011;25938;48.470;1.486;2022-12-07T05:10:54;2.45;;;1.60;;
39426;SDS011;25938;48.470;1.486;2022-12-07T05:13:20;2.28;;;1.90;;
39426;SDS011;25938;48.470;1.486;2022-12-07T05:15:46;3.10;;;2.28;;
39426;SDS011;25938;48.470;1.486;2022-12-07T05:18:12;2.85;;;2.35;;
39426;SDS011;25938;48.470;1.486;2022-12-07T05:20:39;2.90;;;1.95;;
39426;SDS011;25938;48.470;1.486;2022-12-07T05:23:05;3.08;;;1.85;;
39426;SDS011;25938;48.470;1.486;2022-12-07T05:25:31;2.10;;;1.83;;
39426;SDS011;25938;48.470;1.486;2022-12-07T05:27:57;3.15;;;1.73;;
39426;SDS011;25938;48.470;1.486;2022-12-07T05:30:24;2.80;;;1.70;;
39426;SDS011;25938;48.470;1.486;2022-12-07T05:32:50;2.20;;;1.92;;
39426;SDS011;25938;48.470;1.486;2022-12-07T05:35:16;3.25;;;2.15;;
39426;SDS011;25938;48.470;1.486;2022-12-07T05:37:43;2.25;;;2.03;;
39426;SDS011;25938;48.470;1.486;2022-12-07T05:40:10;1.75;;;1.50;;
39426;SDS011;25938;48.470;1.486;2022-12-07T05:42:36;2.08;;;1.55;;
39426;SDS011;25938;48.470;1.486;2022-12-07T05:45:02;1.40;;;1.30;;
39426;SDS011;25938;48.470;1.486;2022-12-07T05:47:28;1.60;;;1.20;;
39426;SDS011;25938;48.470;1.486;2022-12-07T05:49:54;2.63;;;2.00;;
39426;SDS011;25938;48.470;1.486;2022-12-07T05:52:20;2.03;;;1.48;;
39426;SDS011;25938;48.470;1.486;2022-12-07T05:54:47;1.92;;;1.42;;
39426;SDS011;25938;48.470;1.486;2022-12-07T05:57:13;1.50;;;1.40;;
39426;SDS011;25938;48.470;1.486;2022-12-07T05:59:39;1.75;;;1.42;;
39426;SDS011;25938;48.470;1.486;2022-12-07T06:02:06;1.95;;;1.75;;
39426;SDS011;25938;48.470;1.486;2022-12-07T06:04:34;2.28;;;1.38;;
39426;SDS011;25938;48.470;1.486;2022-12-07T06:07:00;3.65;;;1.63;;
39426;SDS011;25938;48.470;1.486;2022-12-07T06:09:27;2.22;;;1.63;;
39426;SDS011;25938;48.470;1.486;2022-12-07T06:11:53;1.90;;;1.13;;
39426;SDS011;25938;48.470;1.486;2022-12-07T06:14:38;2.45;;;1.52;;
39426;SDS011;25938;48.470;1.486;2022-12-07T06:17:04;2.05;;;1.70;;
39426;SDS011;25938;48.470;1.486;2022-12-07T06:19:30;1.63;;;1.52;;
39426;SDS011;25938;48.470;1.486;2022-12-07T06:21:57;1.90;;;1.65;;
39426;SDS011;25938;48.470;1.486;2022-12-07T06:24:23;1.58;;;1.48;;
39426;SDS011;25938;48.470;1.486;2022-12-07T06:26:49;1.40;;;1.10;;
39426;SDS011;25938;48.470;1.486;2022-12-07T06:29:16;1.35;;;1.25;;
39426;SDS011;25938;48.470;1.486;2022-12-07T06:31:42;2.22;;;1.70;;
39426;SDS011;25938;48.470;1.486;2022-12-07T06:34:09;2.50;;;1.23;;
39426;SDS011;25938;48.470;1.486;2022-12-07T06:36:36;1.75;;;1.35;;
39426;SDS011;25938;48.470;1.486;2022-12-07T06:39:02;2.10;;;1.38;;
39426;SDS011;25938;48.470;1.486;2022-12-07T06:41:28;2.53;;;1.48;;
39426;SDS011;25938;48.470;1.486;2022-12-07T06:43:54;2.30;;;1.63;;
39426;SDS011;25938;48.470;1.486;2022-12-07T06:46:20;3.53;;;1.88;;
39426;SDS011;25938;48.470;1.486;2022-12-07T06:48:46;2.83;;;2.45;;
39426;SDS011;25938;48.470;1.486;2022-12-07T06:51:12;2.53;;;1.92;;
39426;SDS011;25938;48.470;1.486;2022-12-07T06:53:38;2.60;;;1.80;;
39426;SDS011;25938;48.470;1.486;2022-12-07T06:56:04;3.03;;;1.80;;
39426;SDS011;25938;48.470;1.486;2022-12-07T06:58:31;2.85;;;1.70;;
39426;SDS011;25938;48.470;1.486;2022-12-07T07:00:57;6.68;;;4.13;;
39426;SDS011;25938;48.470;1.486;2022-12-07T07:03:23;5.32;;;2.92;;
39426;SDS011;25938;48.470;1.486;2022-12-07T07:05:49;4.75;;;3.72;;
39426;SDS011;25938;48.470;1.486;2022-12-07T07:08:15;5.00;;;3.53;;
39426;SDS011;25938;48.470;1.486;2022-12-07T07:10:41;4.80;;;2.92;;
39426;SDS011;25938;48.470;1.486;2022-12-07T07:13:07;4.13;;;2.80;;
39426;SDS011;25938;48.470;1.486;2022-12-07T07:15:33;5.57;;;2.60;;
39426;SDS011;25938;48.470;1.486;2022-12-07T07:17:59;5.20;;;3.30;;
39426;SDS011;25938;48.470;1.486;2022-12-07T07:20:26;4.15;;;3.15;;
39426;SDS011;25938;48.470;1.486;2022-12-07T07:22:55;3.75;;;2.47;;
39426;SDS011;25938;48.470;1.486;2022-12-07T07:25:21;3.28;;;2.42;;
39426;SDS011;25938;48.470;1.486;2022-12-07T07:27:48;2.97;;;2.50;;
39426;SDS011;25938;48.470;1.486;2022-12-07T07:30:14;3.45;;;2.20;;
39426;SDS011;25938;48.470;1.486;2022-12-07T07:32:40;2.67;;;2.13;;
39426;SDS011;25938;48.470;1.486;2022-12-07T07:35:06;2.92;;;2.42;;
39426;SDS011;25938;48.470;1.486;2022-12-07T07:37:32;2.65;;;2.25;;
39426;SDS011;25938;48.470;1.486;2022-12-07T07:39:58;3.90;;;2.58;;
39426;SDS011;25938;48.470;1.486;2022-12-07T07:42:24;4.47;;;3.60;;
39426;SDS011;25938;48.470;1.486;2022-12-07T07:44:50;6.00;;;3.08;;
39426;SDS011;25938;48.470;1.486;2022-12-07T07:47:16;4.18;;;2.65;;
39426;SDS011;25938;48.470;1.486;2022-12-07T07:49:42;3.50;;;2.90;;
39426;SDS011;25938;48.470;1.486;2022-12-07T07:52:09;4.88;;;3.13;;
39426;SDS011;25938;48.470;1.486;2022-12-07T07:54:35;3.97;;;2.80;;
39426;SDS011;25938;48.470;1.486;2022-12-07T07:57:01;5.10;;;2.92;;
39426;SDS011;25938;48.470;1.486;2022-12-07T07:59:27;3.42;;;2.97;;
39426;SDS011;25938;48.470;1.486;2022-12-07T08:01:54;4.10;;;2.55;;
39426;SDS011;25938;48.470;1.486;2022-12-07T08:04:20;6.35;;;2.95;;
39426;SDS011;25938;48.470;1.486;2022-12-07T08:06:46;6.00;;;2.95;;
39426;SDS011;25938;48.470;1.486;2022-12-07T08:09:12;3.38;;;2.33;;
39426;SDS011;25938;48.470;1.486;2022-12-07T08:11:38;3.25;;;2.17;;
39426;SDS011;25938;48.470;1.486;2022-12-07T08:14:04;3.58;;;2.35;;
39426;SDS011;25938;48.470;1.486;2022-12-07T08:16:30;3.40;;;2.08;;
39426;SDS011;25938;48.470;1.486;2022-12-07T08:18:56;3.63;;;2.35;;
39426;SDS011;25938;48.470;1.486;2022-12-07T08:21:23;3.92;;;2.25;;
39426;SDS011;25938;48.470;1.486;2022-12-07T08:23:49;4.00;;;2.30;;
39426;SDS011;25938;48.470;1.486;2022-12-07T08:26:15;3.03;;;2.58;;
39426;SDS011;25938;48.470;1.486;2022-12-07T08:28:41;4.20;;;3.13;;
39426;SDS011;25938;48.470;1.486;2022-12-07T08:31:10;2.40;;;2.00;;
39426;SDS011;25938;48.470;1.486;2022-12-07T08:33:36;3.22;;;2.42;;
39426;SDS011;25938;48.470;1.486;2022-12-07T08:36:03;3.33;;;1.80;;
39426;SDS011;25938;48.470;1.486;2022-12-07T08:38:30;3.08;;;2.42;;
39426;SDS011;25938;48.470;1.486;2022-12-07T08:40:56;3.50;;;2.33;;
39426;SDS011;25938;48.470;1.486;2022-12-07T08:43:23;3.28;;;2.45;;
39426;SDS011;25938;48.470;1.486;2022-12-07T08:46:04;3.13;;;2.85;;
39426;SDS011;25938;48.470;1.486;2022-12-07T08:48:32;4.00;;;2.40;;
39426;SDS011;25938;48.470;1.486;2022-12-07T08:50:58;2.70;;;2.20;;
39426;SDS011;25938;48.470;1.486;2022-12-07T08:53:26;3.40;;;1.95;;
39426;SDS011;25938;48.470;1.486;2022-12-07T08:55:53;2.88;;;2.00;;
39426;SDS011;25938;48.470;1.486;2022-12-07T08:58:19;4.35;;;2.50;;
39426;SDS011;25938;48.470;1.486;2022-12-07T09:00:45;3.15;;;2.05;;
39426;SDS011;25938;48.470;1.486;2022-12-07T09:03:11;3.42;;;2.72;;
39426;SDS011;25938;48.470;1.486;2022-12-07T09:05:37;2.90;;;2.30;;
39426;SDS011;25938;48.470;1.486;2022-12-07T09:08:03;4.40;;;2.67;;
39426;SDS011;25938;48.470;1.486;2022-12-07T09:10:29;4.22;;;2.90;;
39426;SDS011;25938;48.470;1.486;2022-12-07T09:12:55;3.30;;;2.60;;
39426;SDS011;25938;48.470;1.486;2022-12-07T09:15:25;3.28;;;2.17;;
39426;SDS011;25938;48.470;1.486;2022-12-07T09:17:52;2.78;;;2.38;;
39426;SDS011;25938;48.470;1.486;2022-12-07T09:20:18;3.42;;;2.53;;
39426;SDS011;25938;48.470;1.486;2022-12-07T09:22:44;3.60;;;2.75;;
39426;SDS011;25938;48.470;1.486;2022-12-07T09:25:10;3.00;;;2.38;;
39426;SDS011;25938;48.470;1.486;2022-12-07T09:27:36;3.60;;;2.50;;
39426;SDS011;25938;48.470;1.486;2022-12-07T09:30:02;2.88;;;2.42;;
39426;SDS011;25938;48.470;1.486;2022-12-07T09:32:29;3.30;;;2.30;;
39426;SDS011;25938;48.470;1.486;2022-12-07T09:34:55;3.58;;;2.22;;
39426;SDS011;25938;48.470;1.486;2022-12-07T09:37:21;3.05;;;2.75;;
39426;SDS011;25938;48.470;1.486;2022-12-07T09:39:47;3.10;;;2.05;;
39426;SDS011;25938;48.470;1.486;2022-12-07T09:44:51;4.22;;;2.70;;
39426;SDS011;25938;48.470;1.486;2022-12-07T09:47:17;5.30;;;3.13;;
39426;SDS011;25938;48.470;1.486;2022-12-07T09:49:43;3.45;;;2.33;;
39426;SDS011;25938;48.470;1.486;2022-12-07T09:52:20;2.47;;;2.08;;
39426;SDS011;25938;48.470;1.486;2022-12-07T09:54:50;2.85;;;2.55;;
39426;SDS011;25938;48.470;1.486;2022-12-07T09:57:16;3.75;;;2.50;;
39426;SDS011;25938;48.470;1.486;2022-12-07T09:59:43;6.88;;;2.92;;
39426;SDS011;25938;48.470;1.486;2022-12-07T10:02:52;3.90;;;2.35;;
39426;SDS011;25938;48.470;1.486;2022-12-07T10:04:58;2.45;;;2.10;;
39426;SDS011;25938;48.470;1.486;2022-12-07T10:07:24;2.45;;;1.98;;
39426;SDS011;25938;48.470;1.486;2022-12-07T10:09:50;2.35;;;1.77;;
39426;SDS011;25938;48.470;1.486;2022-12-07T10:12:16;3.05;;;2.35;;
39426;SDS011;25938;48.470;1.486;2022-12-07T10:15:03;3.67;;;2.15;;
39426;SDS011;25938;48.470;1.486;2022-12-07T10:20:13;4.85;;;2.28;;
39426;SDS011;25938;48.470;1.486;2022-12-07T10:23:03;3.38;;;2.28;;
39426;SDS011;25938;48.470;1.486;2022-12-07T10:25:36;4.28;;;2.25;;
39426;SDS011;25938;48.470;1.486;2022-12-07T10:33:37;2.42;;;1.73;;
39426;SDS011;25938;48.470;1.486;2022-12-07T10:36:17;2.33;;;2.13;;
39426;SDS011;25938;48.470;1.486;2022-12-07T10:38:45;2.53;;;2.28;;
39426;SDS011;25938;48.470;1.486;2022-12-07T10:41:11;2.95;;;2.40;;
39426;SDS011;25938;48.470;1.486;2022-12-07T10:43:37;2.80;;;2.50;;
39426;SDS011;25938;48.470;1.486;2022-12-07T10:49:03;2.08;;;1.88;;
39426;SDS011;25938;48.470;1.486;2022-12-07T10:51:43;3.65;;;2.33;;
39426;SDS011;25938;48.470;1.486;2022-12-07T10:54:22;4.38;;;3.22;;
39426;SDS011;25938;48.470;1.486;2022-12-07T11:06:57;3.13;;;2.30;;
39426;SDS011;25938;48.470;1.486;2022-12-07T11:14:51;4.43;;;1.92;;
39426;SDS011;25938;48.470;1.486;2022-12-07T11:27:39;4.88;;;2.50;;
39426;SDS011;25938;48.470;1.486;2022-12-07T11:35:11;4.70;;;2.47;;
39426;SDS011;25938;48.470;1.486;2022-12-07T11:37:39;5.18;;;2.75;;
39426;SDS011;25938;48.470;1.486;2022-12-07T11:40:17;2.83;;;2.55;;
39426;SDS011;25938;48.470;1.486;2022-12-07T11:42:48;3.45;;;2.25;;
39426;SDS011;25938;48.470;1.486;2022-12-07T11:45:18;2.92;;;2.28;;
39426;SDS011;25938;48.470;1.486;2022-12-07T11:50:41;5.07;;;2.83;;
39426;SDS011;25938;48.470;1.486;2022-12-07T11:58:34;4.30;;;2.50;;
39426;SDS011;25938;48.470;1.486;2022-12-07T12:03:31;4.72;;;3.03;;
39426;SDS011;25938;48.470;1.486;2022-12-07T12:05:59;4.30;;;3.63;;
39426;SDS011;25938;48.470;1.486;2022-12-07T12:08:39;3.70;;;2.45;;
39426;SDS011;25938;48.470;1.486;2022-12-07T12:13:58;4.63;;;3.28;;
39426;SDS011;25938;48.470;1.486;2022-12-07T12:18:56;3.92;;;2.70;;
39426;SDS011;25938;48.470;1.486;2022-12-07T12:21:28;4.28;;;2.70;;
39426;SDS011;25938;48.470;1.486;2022-12-07T12:24:06;3.95;;;2.35;;
39426;SDS011;25938;48.470;1.486;2022-12-07T12:26:35;2.65;;;2.45;;
39426;SDS011;25938;48.470;1.486;2022-12-07T12:29:06;6.10;;;3.38;;
39426;SDS011;25938;48.470;1.486;2022-12-07T12:31:40;4.80;;;2.70;;
39426;SDS011;25938;48.470;1.486;2022-12-07T12:49:41;5.22;;;3.35;;
39426;SDS011;25938;48.470;1.486;2022-12-07T12:54:57;4.28;;;3.10;;
39426;SDS011;25938;48.470;1.486;2022-12-07T13:10:01;5.90;;;3.53;;
39426;SDS011;25938;48.470;1.486;2022-12-07T13:12:27;4.47;;;3.08;;
39426;SDS011;25938;48.470;1.486;2022-12-07T13:14:54;4.03;;;3.63;;
39426;SDS011;25938;48.470;1.486;2022-12-07T13:20:00;9.32;;;5.10;;
39426;SDS011;25938;48.470;1.486;2022-12-07T13:25:02;6.50;;;4.40;;
39426;SDS011;25938;48.470;1.486;2022-12-07T13:27:29;4.97;;;4.30;;
39426;SDS011;25938;48.470;1.486;2022-12-07T13:29:56;5.43;;;3.42;;
39426;SDS011;25938;48.470;1.486;2022-12-07T13:32:23;6.15;;;4.45;;
39426;SDS011;25938;48.470;1.486;2022-12-07T13:34:50;4.88;;;3.70;;
39426;SDS011;25938;48.470;1.486;2022-12-07T13:37:28;5.88;;;4.13;;
39426;SDS011;25938;48.470;1.486;2022-12-07T13:40:14;5.80;;;3.95;;
39426;SDS011;25938;48.470;1.486;2022-12-07T13:42:43;4.20;;;3.28;;
39426;SDS011;25938;48.470;1.486;2022-12-07T13:45:26;4.43;;;3.25;;
39426;SDS011;25938;48.470;1.486;2022-12-07T13:50:41;7.75;;;6.38;;
39426;SDS011;25938;48.470;1.486;2022-12-07T13:53:11;9.55;;;6.28;;
39426;SDS011;25938;48.470;1.486;2022-12-07T13:55:43;6.15;;;5.15;;
39426;SDS011;25938;48.470;1.486;2022-12-07T13:58:10;7.13;;;4.90;;
39426;SDS011;25938;48.470;1.486;2022-12-07T14:00:36;8.05;;;5.13;;
39426;SDS011;25938;48.470;1.486;2022-12-07T14:05:37;6.40;;;4.28;;
39426;SDS011;25938;48.470;1.486;2022-12-07T14:10:37;5.55;;;4.00;;
39426;SDS011;25938;48.470;1.486;2022-12-07T14:15:50;7.88;;;4.47;;
39426;SDS011;25938;48.470;1.486;2022-12-07T14:21:05;7.88;;;4.57;;
39426;SDS011;25938;48.470;1.486;2022-12-07T14:23:31;5.30;;;4.25;;
39426;SDS011;25938;48.470;1.486;2022-12-07T14:26:08;5.32;;;3.42;;
39426;SDS011;25938;48.470;1.486;2022-12-07T14:28:36;4.07;;;3.15;;
39426;SDS011;25938;48.470;1.486;2022-12-07T14:31:03;5.03;;;3.72;;
39426;SDS011;25938;48.470;1.486;2022-12-07T14:33:33;4.70;;;3.25;;
39426;SDS011;25938;48.470;1.486;2022-12-07T14:35:59;6.10;;;3.70;;
39426;SDS011;25938;48.470;1.486;2022-12-07T14:38:25;4.07;;;3.28;;
39426;SDS011;25938;48.470;1.486;2022-12-07T14:40:52;5.15;;;3.67;;
39426;SDS011;25938;48.470;1.486;2022-12-07T14:43:19;4.25;;;3.72;;
39426;SDS011;25938;48.470;1.486;2022-12-07T14:45:45;5.55;;;3.72;;
39426;SDS011;25938;48.470;1.486;2022-12-07T14:48:12;3.85;;;3.25;;
39426;SDS011;25938;48.470;1.486;2022-12-07T14:50:43;6.32;;;3.05;;
39426;SDS011;25938;48.470;1.486;2022-12-07T14:53:14;3.58;;;2.95;;
39426;SDS011;25938;48.470;1.486;2022-12-07T14:55:41;3.40;;;2.75;;
39426;SDS011;25938;48.470;1.486;2022-12-07T14:58:16;6.40;;;4.03;;
39426;SDS011;25938;48.470;1.486;2022-12-07T15:00:43;5.00;;;3.20;;
39426;SDS011;25938;48.470;1.486;2022-12-07T15:03:09;3.50;;;3.20;;
39426;SDS011;25938;48.470;1.486;2022-12-07T15:05:35;2.80;;;2.53;;
39426;SDS011;25938;48.470;1.486;2022-12-07T15:08:02;3.97;;;3.10;;
39426;SDS011;25938;48.470;1.486;2022-12-07T15:10:30;6.65;;;4.38;;
39426;SDS011;25938;48.470;1.486;2022-12-07T15:13:00;6.63;;;4.32;;
39426;SDS011;25938;48.470;1.486;2022-12-07T15:15:46;5.55;;;3.38;;
39426;SDS011;25938;48.470;1.486;2022-12-07T15:18:12;6.85;;;4.00;;
39426;SDS011;25938;48.470;1.486;2022-12-07T15:20:38;4.30;;;3.45;;
39426;SDS011;25938;48.470;1.486;2022-12-07T15:23:04;8.65;;;3.67;;
39426;SDS011;25938;48.470;1.486;2022-12-07T15:25:31;5.78;;;3.72;;
39426;SDS011;25938;48.470;1.486;2022-12-07T15:27:57;6.85;;;3.78;;
39426;SDS011;25938;48.470;1.486;2022-12-07T15:30:23;6.18;;;3.60;;
39426;SDS011;25938;48.470;1.486;2022-12-07T15:32:49;3.80;;;2.60;;
39426;SDS011;25938;48.470;1.486;2022-12-07T15:35:15;5.07;;;3.80;;
39426;SDS011;25938;48.470;1.486;2022-12-07T15:37:41;6.85;;;3.05;;
39426;SDS011;25938;48.470;1.486;2022-12-07T15:40:08;5.80;;;3.67;;
39426;SDS011;25938;48.470;1.486;2022-12-07T15:42:37;6.95;;;2.97;;
39426;SDS011;25938;48.470;1.486;2022-12-07T15:45:04;4.65;;;3.17;;
39426;SDS011;25938;48.470;1.486;2022-12-07T15:47:35;3.63;;;2.92;;
39426;SDS011;25938;48.470;1.486;2022-12-07T15:50:02;7.28;;;3.42;;
39426;SDS011;25938;48.470;1.486;2022-12-07T15:52:28;4.97;;;3.33;;
39426;SDS011;25938;48.470;1.486;2022-12-07T15:54:54;6.18;;;3.47;;
39426;SDS011;25938;48.470;1.486;2022-12-07T15:57:20;5.85;;;3.03;;
39426;SDS011;25938;48.470;1.486;2022-12-07T15:59:46;5.22;;;3.38;;
39426;SDS011;25938;48.470;1.486;2022-12-07T16:02:12;6.88;;;3.95;;
39426;SDS011;25938;48.470;1.486;2022-12-07T16:04:38;5.32;;;3.80;;
39426;SDS011;25938;48.470;1.486;2022-12-07T16:07:04;6.25;;;3.92;;
39426;SDS011;25938;48.470;1.486;2022-12-07T16:09:31;6.32;;;4.95;;
39426;SDS011;25938;48.470;1.486;2022-12-07T16:11:57;4.60;;;3.10;;
39426;SDS011;25938;48.470;1.486;2022-12-07T16:14:23;5.95;;;3.17;;
39426;SDS011;25938;48.470;1.486;2022-12-07T16:16:49;4.90;;;3.13;;
39426;SDS011;25938;48.470;1.486;2022-12-07T16:19:15;5.70;;;3.63;;
39426;SDS011;25938;48.470;1.486;2022-12-07T16:21:41;6.03;;;3.50;;
39426;SDS011;25938;48.470;1.486;2022-12-07T16:24:07;5.55;;;4.20;;
39426;SDS011;25938;48.470;1.486;2022-12-07T16:26:35;6.18;;;4.47;;
39426;SDS011;25938;48.470;1.486;2022-12-07T16:29:01;9.32;;;6.22;;
39426;SDS011;25938;48.470;1.486;2022-12-07T16:31:28;5.97;;;4.05;;
39426;SDS011;25938;48.470;1.486;2022-12-07T16:33:55;11.77;;;6.03;;
39426;SDS011;25938;48.470;1.486;2022-12-07T16:36:21;13.90;;;6.53;;
39426;SDS011;25938;48.470;1.486;2022-12-07T16:38:49;8.95;;;5.20;;
39426;SDS011;25938;48.470;1.486;2022-12-07T16:41:15;9.10;;;5.15;;
39426;SDS011;25938;48.470;1.486;2022-12-07T16:43:42;8.90;;;4.90;;
39426;SDS011;25938;48.470;1.486;2022-12-07T16:46:08;8.82;;;5.10;;
39426;SDS011;25938;48.470;1.486;2022-12-07T16:48:35;9.85;;;4.65;;
39426;SDS011;25938;48.470;1.486;2022-12-07T16:51:05;8.15;;;4.57;;
39426;SDS011;25938;48.470;1.486;2022-12-07T16:53:31;8.93;;;4.30;;
39426;SDS011;25938;48.470;1.486;2022-12-07T16:55:57;7.18;;;4.57;;
39426;SDS011;25938;48.470;1.486;2022-12-07T16:58:23;8.68;;;4.43;;
39426;SDS011;25938;48.470;1.486;2022-12-07T17:00:49;6.22;;;4.32;;
39426;SDS011;25938;48.470;1.486;2022-12-07T17:03:15;7.20;;;4.50;;
39426;SDS011;25938;48.470;1.486;2022-12-07T17:05:42;6.60;;;4.55;;
39426;SDS011;25938;48.470;1.486;2022-12-07T17:08:08;9.38;;;4.35;;
39426;SDS011;25938;48.470;1.486;2022-12-07T17:10:36;6.32;;;4.38;;
39426;SDS011;25938;48.470;1.486;2022-12-07T17:13:03;6.38;;;4.97;;